Clayton, New York
Current Conditions -  °F | °C
As of 5:56 AM on Saturday 20 Dec 2014 (Local Time) from KART Reporting Station
Clear Clear  
Wind Chill: 15°   Ceiling: Unl
Heat Index: 15°   Visibility: 10mi
Dew Point:   Wind: 0mph
Humidity: 74%   Direction: NA
Pressure: 30.28"   Gusts: NA
Location:  44.24°N, 76.09°W
Report Text: KART 201056Z AUTO 00000KT 10SM CLR M09/M13 A3028 RMK AO2 SLP263 I1000 T10941133
Loading
Personal Weather Stations






























Interactive Weather Map New forecast layout! Learn more

10-Day Weather Forecast

Advertisements
Track Severe Weather on mobile